sensor_id;sensor_type;location;lat;lon;timestamp;pressure;altitude;pressure_sealevel;temperature;humidity
44765;BME280;30484;52.382;5.260;2022-11-03T00:01:49;101385.22;;;14.49;100.00
44765;BME280;30484;52.382;5.260;2022-11-03T00:04:21;101383.72;;;14.75;100.00
44765;BME280;30484;52.382;5.260;2022-11-03T00:06:53;101373.44;;;14.82;100.00
44765;BME280;30484;52.382;5.260;2022-11-03T00:09:23;101358.13;;;14.98;100.00
44765;BME280;30484;52.382;5.260;2022-11-03T00:11:53;101359.97;;;14.52;100.00
44765;BME280;30484;52.382;5.260;2022-11-03T00:14:22;101361.31;;;14.75;100.00
44765;BME280;30484;52.382;5.260;2022-11-03T00:16:50;101353.13;;;14.62;100.00
44765;BME280;30484;52.382;5.260;2022-11-03T00:19:21;101354.19;;;14.27;100.00
44765;BME280;30484;52.382;5.260;2022-11-03T00:21:50;101351.19;;;14.02;100.00
44765;BME280;30484;52.382;5.260;2022-11-03T00:24:19;101352.47;;;14.26;100.00
44765;BME280;30484;52.382;5.260;2022-11-03T00:26:47;101346.25;;;14.56;100.00
44765;BME280;30484;52.382;5.260;2022-11-03T00:29:16;101340.53;;;14.46;100.00
44765;BME280;30484;52.382;5.260;2022-11-03T00:31:44;101366.56;;;14.46;100.00
44765;BME280;30484;52.382;5.260;2022-11-03T00:34:12;101338.44;;;14.67;100.00
44765;BME280;30484;52.382;5.260;2022-11-03T00:36:44;101329.19;;;14.11;100.00
44765;BME280;30484;52.382;5.260;2022-11-03T00:39:13;101340.34;;;14.19;100.00
44765;BME280;30484;52.382;5.260;2022-11-03T00:41:42;101325.00;;;14.21;100.00
44765;BME280;30484;52.382;5.260;2022-11-03T00:44:14;101331.81;;;14.43;100.00
44765;BME280;30484;52.382;5.260;2022-11-03T00:46:42;101347.22;;;14.55;100.00
44765;BME280;30484;52.382;5.260;2022-11-03T00:49:11;101345.63;;;14.21;100.00
44765;BME280;30484;52.382;5.260;2022-11-03T00:51:40;101335.56;;;14.24;100.00
44765;BME280;30484;52.382;5.260;2022-11-03T00:54:10;101324.94;;;13.75;100.00
44765;BME280;30484;52.382;5.260;2022-11-03T00:56:40;101336.59;;;14.22;100.00
44765;BME280;30484;52.382;5.260;2022-11-03T00:59:10;101321.34;;;14.22;100.00
44765;BME280;30484;52.382;5.260;2022-11-03T01:01:41;101321.81;;;13.98;100.00
44765;BME280;30484;52.382;5.260;2022-11-03T01:04:14;101305.22;;;14.22;100.00
44765;BME280;30484;52.382;5.260;2022-11-03T01:07:02;101320.34;;;14.09;100.00
44765;BME280;30484;52.382;5.260;2022-11-03T01:09:37;101308.31;;;14.30;100.00
44765;BME280;30484;52.382;5.260;2022-11-03T01:12:08;101297.53;;;14.62;100.00
44765;BME280;30484;52.382;5.260;2022-11-03T01:14:40;101299.66;;;14.41;100.00
44765;BME280;30484;52.382;5.260;2022-11-03T01:17:11;101297.56;;;14.30;100.00
44765;BME280;30484;52.382;5.260;2022-11-03T01:19:40;101299.72;;;13.93;100.00
44765;BME280;30484;52.382;5.260;2022-11-03T01:22:10;101294.56;;;14.21;100.00
44765;BME280;30484;52.382;5.260;2022-11-03T01:24:41;101295.34;;;14.23;100.00
44765;BME280;30484;52.382;5.260;2022-11-03T01:27:13;101294.41;;;14.08;100.00
44765;BME280;30484;52.382;5.260;2022-11-03T01:29:42;101289.31;;;14.33;100.00
44765;BME280;30484;52.382;5.260;2022-11-03T01:32:12;101285.78;;;14.33;100.00
44765;BME280;30484;52.382;5.260;2022-11-03T01:34:40;101287.53;;;14.34;100.00
44765;BME280;30484;52.382;5.260;2022-11-03T01:37:09;101272.44;;;14.31;100.00
44765;BME280;30484;52.382;5.260;2022-11-03T01:39:37;101267.50;;;14.54;100.00
44765;BME280;30484;52.382;5.260;2022-11-03T01:42:11;101272.06;;;14.38;100.00
44765;BME280;30484;52.382;5.260;2022-11-03T01:44:44;101259.19;;;14.28;100.00
44765;BME280;30484;52.382;5.260;2022-11-03T01:47:20;101264.47;;;14.30;100.00
44765;BME280;30484;52.382;5.260;2022-11-03T01:49:54;101267.66;;;14.37;100.00
44765;BME280;30484;52.382;5.260;2022-11-03T01:52:29;101254.72;;;14.58;100.00
44765;BME280;30484;52.382;5.260;2022-11-03T01:55:03;101253.44;;;14.65;100.00
44765;BME280;30484;52.382;5.260;2022-11-03T01:57:39;101242.41;;;14.39;100.00
44765;BME280;30484;52.382;5.260;2022-11-03T02:00:10;101245.16;;;14.54;100.00
44765;BME280;30484;52.382;5.260;2022-11-03T02:02:39;101234.72;;;14.63;100.00
44765;BME280;30484;52.382;5.260;2022-11-03T02:05:10;101238.22;;;14.49;100.00
44765;BME280;30484;52.382;5.260;2022-11-03T02:07:44;101243.47;;;14.37;100.00
44765;BME280;30484;52.382;5.260;2022-11-03T02:10:15;101232.66;;;14.53;100.00
44765;BME280;30484;52.382;5.260;2022-11-03T02:12:47;101226.00;;;14.29;100.00
44765;BME280;30484;52.382;5.260;2022-11-03T02:15:17;101222.41;;;14.59;100.00
44765;BME280;30484;52.382;5.260;2022-11-03T02:17:51;101233.97;;;14.31;100.00
44765;BME280;30484;52.382;5.260;2022-11-03T02:20:24;101236.06;;;14.40;100.00
44765;BME280;30484;52.382;5.260;2022-11-03T02:23:07;101225.19;;;14.27;100.00
44765;BME280;30484;52.382;5.260;2022-11-03T02:25:50;101226.56;;;14.35;100.00
44765;BME280;30484;52.382;5.260;2022-11-03T02:28:22;101227.69;;;14.61;100.00
44765;BME280;30484;52.382;5.260;2022-11-03T02:31:01;101218.13;;;14.41;100.00
44765;BME280;30484;52.382;5.260;2022-11-03T02:33:43;101209.56;;;14.64;100.00
44765;BME280;30484;52.382;5.260;2022-11-03T02:36:21;101206.59;;;14.39;100.00
44765;BME280;30484;52.382;5.260;2022-11-03T02:38:56;101204.41;;;14.31;100.00
44765;BME280;30484;52.382;5.260;2022-11-03T02:41:30;101202.38;;;14.35;100.00
44765;BME280;30484;52.382;5.260;2022-11-03T02:44:00;101192.06;;;14.12;100.00
44765;BME280;30484;52.382;5.260;2022-11-03T02:46:30;101195.63;;;14.27;100.00
44765;BME280;30484;52.382;5.260;2022-11-03T02:48:59;101188.41;;;14.13;100.00
44765;BME280;30484;52.382;5.260;2022-11-03T02:51:28;101180.88;;;14.35;100.00
44765;BME280;30484;52.382;5.260;2022-11-03T02:54:05;101187.06;;;14.21;100.00
44765;BME280;30484;52.382;5.260;2022-11-03T02:56:39;101173.69;;;14.49;100.00
44765;BME280;30484;52.382;5.260;2022-11-03T02:59:13;101168.25;;;14.94;100.00
44765;BME280;30484;52.382;5.260;2022-11-03T03:01:48;101167.59;;;14.62;100.00
44765;BME280;30484;52.382;5.260;2022-11-03T03:04:30;101157.28;;;14.54;100.00
44765;BME280;30484;52.382;5.260;2022-11-03T03:07:05;101162.78;;;14.67;100.00
44765;BME280;30484;52.382;5.260;2022-11-03T03:09:39;101145.56;;;14.55;100.00
44765;BME280;30484;52.382;5.260;2022-11-03T03:12:11;101140.78;;;14.75;100.00
44765;BME280;30484;52.382;5.260;2022-11-03T03:14:45;101145.75;;;14.52;100.00
44765;BME280;30484;52.382;5.260;2022-11-03T03:17:21;101140.50;;;14.65;100.00
44765;BME280;30484;52.382;5.260;2022-11-03T03:19:58;101143.53;;;14.59;100.00
44765;BME280;30484;52.382;5.260;2022-11-03T03:26:35;101133.78;;;14.72;100.00
44765;BME280;30484;52.382;5.260;2022-11-03T03:29:15;101128.66;;;14.53;100.00
44765;BME280;30484;52.382;5.260;2022-11-03T03:31:52;101128.97;;;14.77;100.00
44765;BME280;30484;52.382;5.260;2022-11-03T03:34:25;101111.75;;;14.94;100.00
44765;BME280;30484;52.382;5.260;2022-11-03T03:37:04;101125.34;;;15.20;100.00
44765;BME280;30484;52.382;5.260;2022-11-03T03:39:37;101123.88;;;14.73;100.00
44765;BME280;30484;52.382;5.260;2022-11-03T03:42:09;101118.97;;;14.65;100.00
44765;BME280;30484;52.382;5.260;2022-11-03T03:44:41;101125.22;;;14.80;100.00
44765;BME280;30484;52.382;5.260;2022-11-03T03:47:16;101115.81;;;14.87;100.00
44765;BME280;30484;52.382;5.260;2022-11-03T03:49:47;101090.16;;;15.23;100.00
44765;BME280;30484;52.382;5.260;2022-11-03T03:52:16;101089.28;;;15.23;100.00
44765;BME280;30484;52.382;5.260;2022-11-03T03:54:46;101085.81;;;14.93;100.00
44765;BME280;30484;52.382;5.260;2022-11-03T03:57:17;101101.88;;;14.80;100.00
44765;BME280;30484;52.382;5.260;2022-11-03T03:59:49;101113.53;;;14.81;100.00
44765;BME280;30484;52.382;5.260;2022-11-03T04:02:19;101097.81;;;14.88;100.00
44765;BME280;30484;52.382;5.260;2022-11-03T04:04:52;101110.31;;;14.89;100.00
44765;BME280;30484;52.382;5.260;2022-11-03T04:07:20;101106.31;;;14.67;100.00
44765;BME280;30484;52.382;5.260;2022-11-03T04:10:09;101091.88;;;14.97;100.00
44765;BME280;30484;52.382;5.260;2022-11-03T04:12:40;101095.91;;;14.90;100.00
44765;BME280;30484;52.382;5.260;2022-11-03T04:15:28;101096.78;;;15.17;100.00
44765;BME280;30484;52.382;5.260;2022-11-03T04:18:15;101087.50;;;15.09;100.00
44765;BME280;30484;52.382;5.260;2022-11-03T04:21:00;101085.94;;;15.19;100.00
44765;BME280;30484;52.382;5.260;2022-11-03T04:23:47;101081.84;;;14.99;100.00
44765;BME280;30484;52.382;5.260;2022-11-03T04:26:17;101079.44;;;15.09;100.00
44765;BME280;30484;52.382;5.260;2022-11-03T04:28:49;101081.38;;;15.07;100.00
44765;BME280;30484;52.382;5.260;2022-11-03T04:31:22;101074.94;;;15.09;100.00
44765;BME280;30484;52.382;5.260;2022-11-03T04:33:51;101060.53;;;15.23;100.00
44765;BME280;30484;52.382;5.260;2022-11-03T04:36:23;101080.75;;;15.16;100.00
44765;BME280;30484;52.382;5.260;2022-11-03T04:38:52;101070.28;;;14.84;100.00
44765;BME280;30484;52.382;5.260;2022-11-03T04:41:23;101073.84;;;15.12;100.00
44765;BME280;30484;52.382;5.260;2022-11-03T04:43:54;101084.28;;;14.60;100.00
44765;BME280;30484;52.382;5.260;2022-11-03T04:46:27;101059.53;;;14.84;100.00
44765;BME280;30484;52.382;5.260;2022-11-03T04:48:59;101058.66;;;15.38;100.00
44765;BME280;30484;52.382;5.260;2022-11-03T04:51:32;101059.59;;;15.24;100.00
44765;BME280;30484;52.382;5.260;2022-11-03T04:54:05;101062.44;;;15.08;100.00
44765;BME280;30484;52.382;5.260;2022-11-03T04:56:37;101052.94;;;15.02;100.00
44765;BME280;30484;52.382;5.260;2022-11-03T04:59:10;101064.59;;;15.16;100.00
44765;BME280;30484;52.382;5.260;2022-11-03T05:01:42;101051.66;;;15.08;100.00
44765;BME280;30484;52.382;5.260;2022-11-03T05:04:14;101048.63;;;15.00;100.00
44765;BME280;30484;52.382;5.260;2022-11-03T05:06:49;101040.38;;;15.16;100.00
44765;BME280;30484;52.382;5.260;2022-11-03T05:09:23;101045.19;;;14.83;100.00
44765;BME280;30484;52.382;5.260;2022-11-03T05:11:54;101054.66;;;15.04;100.00
44765;BME280;30484;52.382;5.260;2022-11-03T05:14:26;101061.66;;;15.06;100.00
44765;BME280;30484;52.382;5.260;2022-11-03T05:16:58;101042.25;;;14.74;100.00
44765;BME280;30484;52.382;5.260;2022-11-03T05:19:33;101041.97;;;15.06;100.00
44765;BME280;30484;52.382;5.260;2022-11-03T05:22:03;101041.06;;;14.92;100.00
44765;BME280;30484;52.382;5.260;2022-11-03T05:24:34;101033.31;;;15.15;100.00
44765;BME280;30484;52.382;5.260;2022-11-03T05:27:04;101031.09;;;14.80;100.00
44765;BME280;30484;52.382;5.260;2022-11-03T05:29:37;101024.34;;;15.14;100.00
44765;BME280;30484;52.382;5.260;2022-11-03T05:32:11;101021.81;;;14.98;100.00
44765;BME280;30484;52.382;5.260;2022-11-03T05:34:43;101023.59;;;15.12;100.00
44765;BME280;30484;52.382;5.260;2022-11-03T05:37:26;101003.09;;;15.37;100.00
44765;BME280;30484;52.382;5.260;2022-11-03T05:39:58;101015.00;;;15.20;100.00
44765;BME280;30484;52.382;5.260;2022-11-03T05:42:34;101007.88;;;14.64;100.00
44765;BME280;30484;52.382;5.260;2022-11-03T05:45:14;101010.69;;;14.90;100.00
44765;BME280;30484;52.382;5.260;2022-11-03T05:47:47;101007.00;;;15.06;100.00
44765;BME280;30484;52.382;5.260;2022-11-03T05:50:20;100997.28;;;15.56;100.00
44765;BME280;30484;52.382;5.260;2022-11-03T05:52:54;100991.47;;;14.96;100.00
44765;BME280;30484;52.382;5.260;2022-11-03T05:55:28;101003.78;;;14.86;100.00
44765;BME280;30484;52.382;5.260;2022-11-03T05:58:00;100999.06;;;15.17;100.00
44765;BME280;30484;52.382;5.260;2022-11-03T06:00:39;100987.59;;;14.73;100.00
44765;BME280;30484;52.382;5.260;2022-11-03T06:03:39;100991.41;;;15.11;100.00
44765;BME280;30484;52.382;5.260;2022-11-03T06:06:16;100992.44;;;14.95;100.00
44765;BME280;30484;52.382;5.260;2022-11-03T06:08:47;100988.84;;;14.95;100.00
44765;BME280;30484;52.382;5.260;2022-11-03T06:11:29;100984.44;;;15.21;100.00
44765;BME280;30484;52.382;5.260;2022-11-03T06:14:01;100980.34;;;14.88;100.00
44765;BME280;30484;52.382;5.260;2022-11-03T06:16:39;100987.84;;;14.83;100.00
44765;BME280;30484;52.382;5.260;2022-11-03T06:19:22;100978.00;;;14.69;100.00
44765;BME280;30484;52.382;5.260;2022-11-03T06:22:01;100975.16;;;15.12;100.00
44765;BME280;30484;52.382;5.260;2022-11-03T06:24:31;100972.22;;;15.02;100.00
44765;BME280;30484;52.382;5.260;2022-11-03T06:27:08;100966.53;;;14.80;100.00
44765;BME280;30484;52.382;5.260;2022-11-03T06:29:45;100971.66;;;14.97;100.00
44765;BME280;30484;52.382;5.260;2022-11-03T06:32:17;100975.34;;;14.82;100.00
44765;BME280;30484;52.382;5.260;2022-11-03T06:34:55;100963.19;;;15.04;100.00
44765;BME280;30484;52.382;5.260;2022-11-03T06:37:28;100948.06;;;15.41;100.00
44765;BME280;30484;52.382;5.260;2022-11-03T06:40:29;100949.88;;;14.88;100.00
44765;BME280;30484;52.382;5.260;2022-11-03T06:43:15;100952.31;;;15.05;100.00
44765;BME280;30484;52.382;5.260;2022-11-03T06:45:50;100954.84;;;15.21;100.00
44765;BME280;30484;52.382;5.260;2022-11-03T06:48:27;100946.66;;;15.23;100.00
44765;BME280;30484;52.382;5.260;2022-11-03T06:51:02;100949.53;;;15.07;100.00
44765;BME280;30484;52.382;5.260;2022-11-03T06:53:33;100947.00;;;15.31;100.00
44765;BME280;30484;52.382;5.260;2022-11-03T06:56:06;100939.56;;;15.34;100.00
44765;BME280;30484;52.382;5.260;2022-11-03T06:58:36;100934.72;;;15.40;100.00
44765;BME280;30484;52.382;5.260;2022-11-03T07:01:13;100929.22;;;15.41;100.00
44765;BME280;30484;52.382;5.260;2022-11-03T07:03:51;100935.22;;;15.19;100.00
44765;BME280;30484;52.382;5.260;2022-11-03T07:06:23;100931.19;;;15.52;100.00
44765;BME280;30484;52.382;5.260;2022-11-03T07:08:55;100925.69;;;15.28;100.00
44765;BME280;30484;52.382;5.260;2022-11-03T07:11:28;100926.66;;;15.40;100.00
44765;BME280;30484;52.382;5.260;2022-11-03T07:14:05;100926.66;;;15.52;100.00
44765;BME280;30484;52.382;5.260;2022-11-03T07:16:40;100925.13;;;15.23;100.00
44765;BME280;30484;52.382;5.260;2022-11-03T07:19:16;100928.69;;;15.36;100.00
44765;BME280;30484;52.382;5.260;2022-11-03T07:21:49;100925.38;;;15.45;100.00
44765;BME280;30484;52.382;5.260;2022-11-03T07:24:22;100925.81;;;15.52;100.00
44765;BME280;30484;52.382;5.260;2022-11-03T07:26:57;100929.13;;;15.94;100.00
44765;BME280;30484;52.382;5.260;2022-11-03T07:29:28;100929.25;;;15.54;100.00
44765;BME280;30484;52.382;5.260;2022-11-03T07:31:59;100924.19;;;15.49;100.00
44765;BME280;30484;52.382;5.260;2022-11-03T07:34:31;100926.44;;;15.56;100.00
44765;BME280;30484;52.382;5.260;2022-11-03T07:37:02;100919.97;;;15.58;100.00
44765;BME280;30484;52.382;5.260;2022-11-03T07:39:35;100928.66;;;15.23;100.00
44765;BME280;30484;52.382;5.260;2022-11-03T07:42:13;100921.72;;;15.59;100.00
44765;BME280;30484;52.382;5.260;2022-11-03T07:44:44;100918.47;;;15.28;100.00
44765;BME280;30484;52.382;5.260;2022-11-03T07:47:17;100923.00;;;15.41;100.00
44765;BME280;30484;52.382;5.260;2022-11-03T07:49:47;100914.69;;;15.69;100.00
44765;BME280;30484;52.382;5.260;2022-11-03T07:52:24;100904.66;;;15.71;100.00
44765;BME280;30484;52.382;5.260;2022-11-03T07:54:55;100897.78;;;15.80;100.00
44765;BME280;30484;52.382;5.260;2022-11-03T07:57:27;100903.16;;;15.67;100.00
44765;BME280;30484;52.382;5.260;2022-11-03T08:00:02;100890.00;;;16.01;100.00
44765;BME280;30484;52.382;5.260;2022-11-03T08:02:42;100900.44;;;16.19;100.00
44765;BME280;30484;52.382;5.260;2022-11-03T08:05:15;100893.22;;;16.07;100.00
44765;BME280;30484;52.382;5.260;2022-11-03T08:07:45;100890.44;;;15.95;100.00
44765;BME280;30484;52.382;5.260;2022-11-03T08:10:14;100887.84;;;16.07;100.00
44765;BME280;30484;52.382;5.260;2022-11-03T08:12:42;100889.91;;;15.90;100.00
44765;BME280;30484;52.382;5.260;2022-11-03T08:15:11;100891.28;;;16.09;100.00
44765;BME280;30484;52.382;5.260;2022-11-03T08:17:39;100885.59;;;15.49;100.00
44765;BME280;30484;52.382;5.260;2022-11-03T08:20:11;100878.69;;;16.09;100.00
44765;BME280;30484;52.382;5.260;2022-11-03T08:22:41;100881.25;;;16.11;100.00
44765;BME280;30484;52.382;5.260;2022-11-03T08:25:31;100875.16;;;15.83;100.00
44765;BME280;30484;52.382;5.260;2022-11-03T08:28:00;100870.78;;;16.06;100.00
44765;BME280;30484;52.382;5.260;2022-11-03T08:30:29;100876.19;;;16.06;100.00
44765;BME280;30484;52.382;5.260;2022-11-03T08:32:59;100863.13;;;16.13;100.00
44765;BME280;30484;52.382;5.260;2022-11-03T08:35:31;100861.75;;;16.07;100.00
44765;BME280;30484;52.382;5.260;2022-11-03T08:38:00;100849.09;;;16.45;100.00
44765;BME280;30484;52.382;5.260;2022-11-03T08:40:32;100845.75;;;16.17;100.00
44765;BME280;30484;52.382;5.260;2022-11-03T08:43:04;100840.00;;;15.97;100.00
44765;BME280;30484;52.382;5.260;2022-11-03T08:45:32;100834.97;;;16.41;100.00
44765;BME280;30484;52.382;5.260;2022-11-03T08:48:01;100831.31;;;16.18;100.00
44765;BME280;30484;52.382;5.260;2022-11-03T08:50:30;100836.09;;;16.01;100.00
44765;BME280;30484;52.382;5.260;2022-11-03T08:52:58;100821.38;;;16.18;100.00
44765;BME280;30484;52.382;5.260;2022-11-03T08:55:28;100806.66;;;16.35;100.00
44765;BME280;30484;52.382;5.260;2022-11-03T08:57:58;100814.25;;;16.42;100.00
44765;BME280;30484;52.382;5.260;2022-11-03T09:00:26;100811.81;;;16.38;100.00
44765;BME280;30484;52.382;5.260;2022-11-03T09:02:55;100796.75;;;16.47;100.00
44765;BME280;30484;52.382;5.260;2022-11-03T09:05:24;100804.72;;;16.84;100.00
44765;BME280;30484;52.382;5.260;2022-11-03T09:07:53;100791.19;;;16.62;100.00
44765;BME280;30484;52.382;5.260;2022-11-03T09:10:41;100793.03;;;16.37;100.00
44765;BME280;30484;52.382;5.260;2022-11-03T09:13:11;100781.56;;;16.82;100.00
44765;BME280;30484;52.382;5.260;2022-11-03T09:15:40;100782.22;;;16.61;100.00
44765;BME280;30484;52.382;5.260;2022-11-03T09:18:10;100780.25;;;16.52;100.00
44765;BME280;30484;52.382;5.260;2022-11-03T09:20:39;100763.50;;;16.71;100.00
44765;BME280;30484;52.382;5.260;2022-11-03T09:23:08;100755.59;;;16.92;100.00
44765;BME280;30484;52.382;5.260;2022-11-03T09:25:37;100735.06;;;16.78;100.00
44765;BME280;30484;52.382;5.260;2022-11-03T09:28:06;100737.97;;;16.64;100.00
44765;BME280;30484;52.382;5.260;2022-11-03T09:30:37;100726.38;;;16.74;100.00
44765;BME280;30484;52.382;5.260;2022-11-03T09:33:06;100727.56;;;16.59;100.00
44765;BME280;30484;52.382;5.260;2022-11-03T09:35:37;100730.63;;;16.77;100.00
44765;BME280;30484;52.382;5.260;2022-11-03T09:38:05;100702.22;;;16.96;100.00
44765;BME280;30484;52.382;5.260;2022-11-03T09:40:35;100687.91;;;17.06;100.00
44765;BME280;30484;52.382;5.260;2022-11-03T09:43:03;100695.94;;;16.72;100.00
44765;BME280;30484;52.382;5.260;2022-11-03T09:45:33;100692.50;;;16.70;100.00
44765;BME280;30484;52.382;5.260;2022-11-03T09:48:04;100688.41;;;16.89;100.00
44765;BME280;30484;52.382;5.260;2022-11-03T09:50:33;100685.88;;;16.63;100.00
44765;BME280;30484;52.382;5.260;2022-11-03T09:53:01;100672.28;;;16.76;100.00
44765;BME280;30484;52.382;5.260;2022-11-03T09:55:31;100664.28;;;17.42;100.00
44765;BME280;30484;52.382;5.260;2022-11-03T09:58:08;100665.28;;;16.62;100.00
44765;BME280;30484;52.382;5.260;2022-11-03T10:00:41;100660.16;;;16.70;100.00
44765;BME280;30484;52.382;5.260;2022-11-03T10:03:12;100649.47;;;17.25;100.00
44765;BME280;30484;52.382;5.260;2022-11-03T10:05:44;100658.34;;;17.05;100.00
44765;BME280;30484;52.382;5.260;2022-11-03T10:08:20;100648.00;;;17.10;100.00
44765;BME280;30484;52.382;5.260;2022-11-03T10:10:52;100639.31;;;17.06;100.00
44765;BME280;30484;52.382;5.260;2022-11-03T10:13:27;100648.91;;;16.88;100.00
44765;BME280;30484;52.382;5.260;2022-11-03T10:15:57;100632.78;;;16.86;100.00
44765;BME280;30484;52.382;5.260;2022-11-03T10:18:28;100620.69;;;16.92;100.00
44765;BME280;30484;52.382;5.260;2022-11-03T10:21:04;100626.00;;;17.37;100.00
44765;BME280;30484;52.382;5.260;2022-11-03T10:23:33;100621.34;;;17.28;100.00
44765;BME280;30484;52.382;5.260;2022-11-03T10:26:09;100617.66;;;17.40;100.00
44765;BME280;30484;52.382;5.260;2022-11-03T10:28:59;100619.00;;;17.46;100.00
44765;BME280;30484;52.382;5.260;2022-11-03T10:31:34;100602.72;;;17.25;100.00
44765;BME280;30484;52.382;5.260;2022-11-03T10:34:23;100625.44;;;17.11;100.00
44765;BME280;30484;52.382;5.260;2022-11-03T10:37:16;100597.72;;;16.86;100.00
44765;BME280;30484;52.382;5.260;2022-11-03T10:39:49;100602.75;;;17.14;100.00
44765;BME280;30484;52.382;5.260;2022-11-03T10:42:26;100594.78;;;17.77;100.00
44765;BME280;30484;52.382;5.260;2022-11-03T10:45:16;100577.81;;;17.54;100.00
44765;BME280;30484;52.382;5.260;2022-11-03T10:47:59;100582.19;;;17.34;100.00
44765;BME280;30484;52.382;5.260;2022-11-03T10:50:30;100567.97;;;17.32;100.00
44765;BME280;30484;52.382;5.260;2022-11-03T10:52:59;100569.00;;;17.52;100.00
44765;BME280;30484;52.382;5.260;2022-11-03T10:55:29;100569.41;;;17.68;100.00
44765;BME280;30484;52.382;5.260;2022-11-03T10:57:59;100565.09;;;17.45;100.00
44765;BME280;30484;52.382;5.260;2022-11-03T11:00:30;100552.31;;;17.47;100.00
44765;BME280;30484;52.382;5.260;2022-11-03T11:03:00;100563.59;;;17.52;100.00
44765;BME280;30484;52.382;5.260;2022-11-03T11:05:31;100554.63;;;17.51;100.00
44765;BME280;30484;52.382;5.260;2022-11-03T11:07:59;100540.31;;;17.39;100.00
44765;BME280;30484;52.382;5.260;2022-11-03T11:10:29;100535.53;;;17.64;100.00
44765;BME280;30484;52.382;5.260;2022-11-03T11:13:24;100528.00;;;17.47;100.00
44765;BME280;30484;52.382;5.260;2022-11-03T11:15:55;100513.00;;;17.54;100.00
44765;BME280;30484;52.382;5.260;2022-11-03T11:19:10;100512.75;;;17.78;100.00
44765;BME280;30484;52.382;5.260;2022-11-03T11:22:21;100509.03;;;17.37;100.00
44765;BME280;30484;52.382;5.260;2022-11-03T11:24:58;100512.34;;;17.40;100.00
44765;BME280;30484;52.382;5.260;2022-11-03T11:28:10;100512.63;;;17.80;100.00
44765;BME280;30484;52.382;5.260;2022-11-03T11:31:27;100504.31;;;17.50;100.00
44765;BME280;30484;52.382;5.260;2022-11-03T11:34:38;100508.53;;;18.06;100.00
44765;BME280;30484;52.382;5.260;2022-11-03T11:37:36;100500.34;;;17.75;100.00
44765;BME280;30484;52.382;5.260;2022-11-03T11:40:14;100485.66;;;17.89;100.00
44765;BME280;30484;52.382;5.260;2022-11-03T11:43:24;100489.47;;;18.08;100.00
44765;BME280;30484;52.382;5.260;2022-11-03T11:46:37;100482.97;;;17.68;100.00
44765;BME280;30484;52.382;5.260;2022-11-03T11:49:16;100479.63;;;17.97;100.00
44765;BME280;30484;52.382;5.260;2022-11-03T11:51:45;100465.56;;;18.03;100.00
44765;BME280;30484;52.382;5.260;2022-11-03T11:54:19;100467.56;;;18.42;100.00
44765;BME280;30484;52.382;5.260;2022-11-03T11:56:49;100446.28;;;18.18;100.00
44765;BME280;30484;52.382;5.260;2022-11-03T11:59:23;100444.28;;;18.70;100.00
44765;BME280;30484;52.382;5.260;2022-11-03T12:01:56;100437.38;;;18.97;100.00
44765;BME280;30484;52.382;5.260;2022-11-03T12:04:27;100429.09;;;18.28;100.00
44765;BME280;30484;52.382;5.260;2022-11-03T12:07:14;100428.16;;;18.49;100.00
44765;BME280;30484;52.382;5.260;2022-11-03T12:10:08;100424.03;;;18.55;100.00
44765;BME280;30484;52.382;5.260;2022-11-03T12:13:42;100417.88;;;18.33;100.00
44765;BME280;30484;52.382;5.260;2022-11-03T12:16:27;100396.56;;;18.59;100.00
44765;BME280;30484;52.382;5.260;2022-11-03T12:18:56;100402.78;;;18.31;100.00
44765;BME280;30484;52.382;5.260;2022-11-03T12:21:45;100385.72;;;18.50;100.00
44765;BME280;30484;52.382;5.260;2022-11-03T12:27:41;100385.88;;;18.58;100.00
44765;BME280;30484;52.382;5.260;2022-11-03T12:30:18;100374.19;;;18.38;100.00
44765;BME280;30484;52.382;5.260;2022-11-03T12:32:47;100375.19;;;18.46;100.00
44765;BME280;30484;52.382;5.260;2022-11-03T12:35:18;100361.25;;;18.41;100.00
44765;BME280;30484;52.382;5.260;2022-11-03T12:37:59;100347.88;;;18.69;100.00
44765;BME280;30484;52.382;5.260;2022-11-03T12:40:29;100347.00;;;18.59;100.00
44765;BME280;30484;52.382;5.260;2022-11-03T12:42:58;100352.69;;;18.46;100.00
44765;BME280;30484;52.382;5.260;2022-11-03T12:45:33;100343.03;;;18.63;100.00
44765;BME280;30484;52.382;5.260;2022-11-03T12:48:03;100332.34;;;18.52;100.00
44765;BME280;30484;52.382;5.260;2022-11-03T12:50:34;100343.19;;;18.61;100.00
44765;BME280;30484;52.382;5.260;2022-11-03T12:53:05;100327.59;;;18.15;100.00
44765;BME280;30484;52.382;5.260;2022-11-03T12:55:35;100319.53;;;18.54;100.00
44765;BME280;30484;52.382;5.260;2022-11-03T12:58:11;100304.44;;;18.61;100.00
44765;BME280;30484;52.382;5.260;2022-11-03T13:00:43;100309.34;;;18.07;100.00
44765;BME280;30484;52.382;5.260;2022-11-03T13:03:21;100307.66;;;18.06;100.00
44765;BME280;30484;52.382;5.260;2022-11-03T13:05:51;100311.41;;;18.34;100.00
44765;BME280;30484;52.382;5.260;2022-11-03T13:08:21;100308.94;;;18.02;100.00
44765;BME280;30484;52.382;5.260;2022-11-03T13:10:52;100291.19;;;18.68;100.00
44765;BME280;30484;52.382;5.260;2022-11-03T13:13:22;100293.31;;;18.74;100.00
44765;BME280;30484;52.382;5.260;2022-11-03T13:15:56;100278.88;;;19.22;100.00
44765;BME280;30484;52.382;5.260;2022-11-03T13:18:28;100273.25;;;18.76;100.00
44765;BME280;30484;52.382;5.260;2022-11-03T13:20:57;100262.09;;;19.09;100.00
44765;BME280;30484;52.382;5.260;2022-11-03T13:23:26;100259.25;;;19.10;100.00
44765;BME280;30484;52.382;5.260;2022-11-03T13:25:55;100254.06;;;19.27;100.00